createdAt,value
2022-12-19T00:00:45.496Z,-1.50
2022-12-19T00:03:13.945Z,-1.50
2022-12-19T00:05:42.979Z,-1.50
2022-12-19T00:08:16.825Z,-1.50
2022-12-19T00:10:55.478Z,-1.50
2022-12-19T00:13:23.776Z,-1.60
2022-12-19T00:15:52.228Z,-1.60
2022-12-19T00:18:20.550Z,-1.60
2022-12-19T00:20:55.490Z,-1.60
2022-12-19T00:23:23.748Z,-1.60
2022-12-19T00:25:55.737Z,-1.60
2022-12-19T00:28:25.071Z,-1.60
2022-12-19T00:30:53.433Z,-1.70
2022-12-19T00:33:23.836Z,-1.70
2022-12-19T00:35:52.087Z,-1.70
2022-12-19T00:38:20.235Z,-1.70
2022-12-19T00:40:48.339Z,-1.80
2022-12-19T00:43:17.963Z,-1.80
2022-12-19T00:45:46.266Z,-1.90
2022-12-19T00:48:14.713Z,-1.90
2022-12-19T00:50:45.764Z,-1.90
2022-12-19T00:53:13.968Z,-1.90
2022-12-19T00:55:42.061Z,-2.00
2022-12-19T00:58:10.141Z,-2.10
2022-12-19T01:00:39.764Z,-2.00
2022-12-19T01:03:10.492Z,-2.10
2022-12-19T01:05:41.239Z,-2.10
2022-12-19T01:08:10.250Z,-2.10
2022-12-19T01:10:38.620Z,-2.20
2022-12-19T01:13:05.870Z,-2.20
2022-12-19T01:15:34.017Z,-2.30
2022-12-19T01:18:03.685Z,-2.30
2022-12-19T01:20:33.637Z,-2.30
2022-12-19T01:23:01.847Z,-2.30
2022-12-19T01:25:33.217Z,-2.30
2022-12-19T01:28:03.273Z,-2.30
2022-12-19T01:30:31.626Z,-2.40
2022-12-19T01:33:00.815Z,-2.40
2022-12-19T01:35:30.600Z,-2.40
2022-12-19T01:38:08.166Z,-2.50
2022-12-19T01:40:36.644Z,-2.50
2022-12-19T01:43:05.127Z,-2.60
2022-12-19T01:45:35.121Z,-2.60
2022-12-19T01:48:16.593Z,-2.60
2022-12-19T01:50:57.002Z,-2.60
2022-12-19T01:53:32.087Z,-2.70
2022-12-19T01:56:00.587Z,-2.70
2022-12-19T01:58:28.733Z,-2.90
2022-12-19T02:00:57.006Z,-3.00
2022-12-19T02:03:26.973Z,-2.90
2022-12-19T02:05:56.967Z,-2.90
2022-12-19T02:08:25.902Z,-3.00
2022-12-19T02:10:53.986Z,-3.00
2022-12-19T02:13:22.480Z,-3.00
2022-12-19T02:15:53.892Z,-3.00
2022-12-19T02:18:28.100Z,-2.90
2022-12-19T02:21:14.113Z,-2.90
2022-12-19T02:24:00.010Z,-2.80
2022-12-19T02:26:44.291Z,-2.90
2022-12-19T02:29:19.544Z,-2.90
2022-12-19T02:31:51.196Z,-2.90
2022-12-19T02:34:22.621Z,-2.90
2022-12-19T02:36:52.995Z,-2.90
2022-12-19T02:39:26.292Z,-2.80
2022-12-19T02:41:57.193Z,-2.80
2022-12-19T02:44:27.755Z,-2.80
2022-12-19T02:47:01.282Z,-2.80
2022-12-19T02:49:30.658Z,-2.80
2022-12-19T02:51:59.530Z,-2.80
2022-12-19T02:54:27.725Z,-2.80
2022-12-19T02:56:58.059Z,-2.80
2022-12-19T02:59:30.903Z,-2.80
2022-12-19T03:02:05.555Z,-2.80
2022-12-19T03:04:40.935Z,-2.90
2022-12-19T03:07:14.510Z,-2.90
2022-12-19T03:09:48.010Z,-2.90
2022-12-19T03:12:18.168Z,-3.00
2022-12-19T03:14:46.802Z,-3.00
2022-12-19T03:17:16.561Z,-3.00
2022-12-19T03:19:46.145Z,-3.00
2022-12-19T03:22:14.363Z,-3.00
2022-12-19T03:24:42.806Z,-3.00
2022-12-19T03:27:12.587Z,-3.00
2022-12-19T03:29:43.387Z,-3.00
2022-12-19T03:32:13.746Z,-3.10
2022-12-19T03:34:45.541Z,-3.10
2022-12-19T03:37:15.964Z,-3.10
2022-12-19T03:39:46.789Z,-3.10
2022-12-19T03:42:33.653Z,-3.10
2022-12-19T03:45:03.390Z,-3.10
2022-12-19T03:47:35.096Z,-3.10
2022-12-19T03:50:05.265Z,-3.10
2022-12-19T03:52:36.986Z,-3.10
2022-12-19T03:55:08.065Z,-3.10
2022-12-19T03:57:39.191Z,-3.20
2022-12-19T04:00:09.238Z,-3.20
2022-12-19T04:02:39.607Z,-3.20
2022-12-19T04:05:10.288Z,-3.20
2022-12-19T04:07:38.913Z,-3.30
2022-12-19T04:10:08.101Z,-3.30
2022-12-19T04:12:38.659Z,-3.40
2022-12-19T04:15:07.694Z,-3.40
2022-12-19T04:17:37.124Z,-3.40
2022-12-19T04:20:07.085Z,-3.40
2022-12-19T04:22:38.454Z,-3.40
2022-12-19T04:25:08.062Z,-3.40
2022-12-19T04:27:37.093Z,-3.40
2022-12-19T04:30:06.081Z,-3.40
2022-12-19T04:32:35.421Z,-3.50
2022-12-19T04:35:03.897Z,-3.50
2022-12-19T04:37:32.673Z,-3.50
2022-12-19T04:40:02.169Z,-3.50
2022-12-19T04:42:30.438Z,-3.50
2022-12-19T04:44:58.522Z,-3.50
2022-12-19T04:47:26.660Z,-3.50
2022-12-19T04:49:55.052Z,-3.60
2022-12-19T04:52:23.203Z,-3.60
2022-12-19T04:54:52.471Z,-3.60
2022-12-19T04:57:22.252Z,-3.60
2022-12-19T04:59:50.430Z,-3.70
2022-12-19T05:02:18.724Z,-3.60
2022-12-19T05:04:46.984Z,-3.50
2022-12-19T05:07:15.391Z,-3.50
2022-12-19T05:09:43.566Z,-3.50
2022-12-19T05:12:11.678Z,-3.50
2022-12-19T05:14:43.335Z,-3.50
2022-12-19T05:17:14.571Z,-3.40
2022-12-19T05:19:42.690Z,-3.50
2022-12-19T05:22:10.906Z,-3.50
2022-12-19T05:24:39.216Z,-3.50
2022-12-19T05:27:09.020Z,-3.60
2022-12-19T05:29:37.085Z,-3.60
2022-12-19T05:32:07.137Z,-3.80
2022-12-19T05:34:35.315Z,-3.80
2022-12-19T05:37:03.958Z,-3.80
2022-12-19T05:39:32.363Z,-3.80
2022-12-19T05:42:00.444Z,-3.80
2022-12-19T05:44:28.614Z,-3.80
2022-12-19T05:46:57.006Z,-3.70
2022-12-19T05:49:26.730Z,-3.60
2022-12-19T05:51:55.592Z,-3.60
2022-12-19T05:54:23.931Z,-3.60
2022-12-19T05:56:52.020Z,-3.70
2022-12-19T05:59:20.324Z,-3.60
2022-12-19T06:01:48.514Z,-3.50
2022-12-19T06:04:16.817Z,-3.50
2022-12-19T06:06:46.474Z,-3.60
2022-12-19T06:09:14.775Z,-3.60
2022-12-19T06:11:42.896Z,-3.60
2022-12-19T06:14:11.104Z,-3.60
2022-12-19T06:16:39.346Z,-3.50
2022-12-19T06:19:07.553Z,-3.60
2022-12-19T06:21:39.738Z,-3.60
2022-12-19T06:24:15.274Z,-3.70
2022-12-19T06:26:43.658Z,-3.70
2022-12-19T06:29:11.715Z,-3.60
2022-12-19T06:31:39.868Z,-3.60
2022-12-19T06:34:08.123Z,-3.60
2022-12-19T06:36:36.246Z,-3.60
2022-12-19T06:39:04.806Z,-3.60
2022-12-19T06:41:51.665Z,-3.50
2022-12-19T06:44:19.899Z,-3.50
2022-12-19T06:46:50.196Z,-3.50
2022-12-19T06:49:18.445Z,-3.40
2022-12-19T06:51:46.616Z,-3.30
2022-12-19T06:54:15.611Z,-3.30
2022-12-19T06:56:45.577Z,-3.20
2022-12-19T06:59:16.964Z,-3.20
2022-12-19T07:01:52.732Z,-3.20
2022-12-19T07:04:25.187Z,-3.10
2022-12-19T07:06:53.418Z,-3.10
2022-12-19T07:09:21.835Z,-3.10
2022-12-19T07:11:51.355Z,-3.10
2022-12-19T07:14:19.530Z,-3.00
2022-12-19T07:16:48.145Z,-2.90
2022-12-19T07:19:16.651Z,-2.90
2022-12-19T07:21:44.893Z,-2.90
2022-12-19T07:24:14.864Z,-2.80
2022-12-19T07:26:43.435Z,-2.80
2022-12-19T07:29:13.385Z,-2.80
2022-12-19T07:31:41.687Z,-2.80
2022-12-19T07:34:10.246Z,-2.80
2022-12-19T07:36:38.421Z,-2.70
2022-12-19T07:39:06.628Z,-2.70
2022-12-19T07:41:37.207Z,-2.60
2022-12-19T07:44:05.687Z,-2.60
2022-12-19T07:46:35.655Z,-2.60
2022-12-19T07:49:04.078Z,-2.50
2022-12-19T07:51:32.326Z,-2.50
2022-12-19T07:54:00.678Z,-2.40
2022-12-19T07:56:30.074Z,-2.40
2022-12-19T07:58:58.401Z,-2.40
2022-12-19T08:01:28.245Z,-2.30
2022-12-19T08:03:59.487Z,-2.30
2022-12-19T08:06:28.421Z,-2.20
2022-12-19T08:08:57.257Z,-2.20
2022-12-19T08:11:29.401Z,-2.10
2022-12-19T08:14:01.730Z,-2.00
2022-12-19T08:16:29.945Z,-2.00
2022-12-19T08:18:59.706Z,-1.90
2022-12-19T08:21:28.004Z,-1.80
2022-12-19T08:23:56.226Z,-1.70
2022-12-19T08:26:26.132Z,-1.70
2022-12-19T08:28:54.285Z,-1.70
2022-12-19T08:31:24.568Z,-1.60
2022-12-19T08:33:54.008Z,-1.50
2022-12-19T08:36:24.005Z,-1.50
2022-12-19T08:38:54.522Z,-1.50
2022-12-19T08:41:24.153Z,-1.50
2022-12-19T08:43:53.608Z,-1.40
2022-12-19T08:46:25.305Z,-1.30
2022-12-19T08:48:53.539Z,-1.30
2022-12-19T08:51:22.097Z,-1.20
2022-12-19T08:53:52.383Z,-1.20
2022-12-19T08:56:21.323Z,-1.20
2022-12-19T08:58:49.883Z,-1.20
2022-12-19T09:01:20.141Z,-1.10
2022-12-19T09:04:24.352Z,-1.10
2022-12-19T09:06:37.067Z,-1.00
2022-12-19T09:09:06.996Z,-1.10
2022-12-19T09:11:47.462Z,-1.00
2022-12-19T09:14:21.515Z,-0.90
2022-12-19T09:16:50.078Z,-1.00
2022-12-19T09:19:18.478Z,-1.00
2022-12-19T09:21:46.618Z,-1.00
2022-12-19T09:24:16.170Z,-0.90
2022-12-19T09:26:44.930Z,-0.90
2022-12-19T09:29:20.839Z,-0.90
2022-12-19T09:31:53.836Z,-0.80
2022-12-19T09:34:31.786Z,-0.80
2022-12-19T09:37:07.819Z,-0.80
2022-12-19T09:39:37.669Z,-0.80
2022-12-19T09:42:14.788Z,-0.80
2022-12-19T09:44:50.259Z,-0.70
2022-12-19T09:47:19.771Z,-0.70
2022-12-19T09:49:48.671Z,-0.70
2022-12-19T09:52:20.907Z,-0.70
2022-12-19T09:54:52.620Z,-0.70
2022-12-19T09:57:24.642Z,-0.80
2022-12-19T09:59:54.445Z,-0.80
2022-12-19T10:02:30.103Z,-0.80
2022-12-19T10:05:17.942Z,-0.80
2022-12-19T10:08:10.336Z,-0.80
2022-12-19T10:12:37.902Z,-0.80
2022-12-19T10:13:47.135Z,-0.80
2022-12-19T10:16:18.112Z,-0.80
2022-12-19T10:18:56.495Z,-0.70
2022-12-19T10:22:15.646Z,-0.70
2022-12-19T10:24:35.397Z,-0.60
2022-12-19T10:27:11.558Z,-0.60
2022-12-19T10:29:50.109Z,-0.50
2022-12-19T10:32:20.940Z,-0.60
2022-12-19T10:34:49.870Z,-0.50
2022-12-19T10:37:27.221Z,-0.50
2022-12-19T10:40:04.742Z,-0.50
2022-12-19T10:42:40.993Z,-0.50
2022-12-19T10:45:14.250Z,-0.40
2022-12-19T10:47:43.034Z,-0.40
2022-12-19T10:50:14.581Z,-0.40
2022-12-19T10:52:48.667Z,-0.40
2022-12-19T10:55:31.729Z,-0.30
2022-12-19T10:58:02.666Z,-0.30
2022-12-19T11:00:32.911Z,-0.20
2022-12-19T11:03:19.141Z,-0.30
2022-12-19T11:05:57.141Z,-0.30
2022-12-19T11:08:27.421Z,-0.20
2022-12-19T11:14:30.839Z,-0.20
2022-12-19T11:19:42.368Z,-0.20
2022-12-19T11:20:10.099Z,-0.20
2022-12-19T11:29:38.939Z,-0.20
2022-12-19T11:29:41.501Z,-0.20
2022-12-19T11:30:34.330Z,-0.20
2022-12-19T11:30:48.382Z,-0.20
2022-12-19T11:31:45.239Z,-0.20
2022-12-19T11:33:54.932Z,-0.20
2022-12-19T11:36:30.865Z,-0.20
2022-12-19T11:38:59.037Z,-0.20
2022-12-19T11:41:30.945Z,-0.10
2022-12-19T11:44:03.532Z,-0.10
2022-12-19T11:46:38.836Z,-0.10
2022-12-19T11:49:10.480Z,-0.20
2022-12-19T11:51:41.621Z,-0.20
2022-12-19T11:54:14.557Z,-0.20
2022-12-19T11:56:42.889Z,-0.20
2022-12-19T11:59:16.367Z,-0.20
2022-12-19T12:01:52.629Z,-0.20
2022-12-19T12:04:37.051Z,-0.10
2022-12-19T12:07:11.849Z,-0.10
2022-12-19T12:13:58.091Z,-0.20
2022-12-19T12:21:22.244Z,-0.20
2022-12-19T12:27:04.771Z,-0.20
2022-12-19T12:31:04.119Z,-0.20
2022-12-19T12:31:28.798Z,-0.20
2022-12-19T12:31:51.387Z,-0.20
2022-12-19T12:31:56.211Z,-0.20
2022-12-19T12:32:02.055Z,-0.20
2022-12-19T12:35:12.787Z,-0.20
2022-12-19T12:41:53.521Z,-0.10
2022-12-19T12:44:32.792Z,-0.10
2022-12-19T12:47:05.643Z,-0.10
2022-12-19T12:49:40.360Z,-0.10
2022-12-19T12:52:12.044Z,0.00
2022-12-19T12:54:43.332Z,0.00
2022-12-19T12:57:18.724Z,-0.10
2022-12-19T12:59:48.634Z,0.00
2022-12-19T13:02:19.774Z,-0.10
2022-12-19T13:04:57.498Z,-0.10
2022-12-19T13:07:31.990Z,-0.10
2022-12-19T13:10:22.246Z,-0.10
2022-12-19T13:13:04.401Z,-0.10
2022-12-19T13:15:44.091Z,-0.10
2022-12-19T13:18:37.855Z,-0.10
2022-12-19T13:21:08.126Z,-0.10
2022-12-19T13:23:51.414Z,0.00
2022-12-19T13:26:21.360Z,-0.10
2022-12-19T13:28:49.481Z,0.00
2022-12-19T13:31:22.912Z,-0.10
2022-12-19T13:34:15.570Z,0.00
2022-12-19T13:39:54.619Z,0.00
2022-12-19T13:39:56.781Z,0.00
2022-12-19T13:42:51.927Z,0.00
2022-12-19T13:45:29.915Z,0.10
2022-12-19T13:47:59.733Z,0.10
2022-12-19T13:50:29.664Z,0.00
2022-12-19T13:52:58.034Z,0.00
2022-12-19T13:55:29.178Z,0.10
2022-12-19T13:57:58.342Z,0.10
2022-12-19T14:00:32.865Z,0.00
2022-12-19T14:03:01.798Z,0.00
2022-12-19T14:06:14.928Z,0.00
2022-12-19T14:08:22.855Z,0.10
2022-12-19T14:11:42.741Z,0.10
2022-12-19T14:14:22.075Z,0.10
2022-12-19T14:16:56.798Z,0.10
2022-12-19T14:19:27.857Z,0.00
2022-12-19T14:22:06.636Z,0.10
2022-12-19T14:24:42.822Z,0.10
2022-12-19T14:28:26.078Z,0.10
2022-12-19T14:30:30.317Z,0.10
2022-12-19T14:33:45.423Z,0.10
2022-12-19T14:36:10.133Z,0.10
2022-12-19T14:39:24.815Z,0.10
2022-12-19T14:41:57.460Z,0.20
2022-12-19T14:52:35.908Z,0.30
2022-12-19T14:53:10.843Z,0.10
2022-12-19T14:54:21.095Z,0.30
2022-12-19T14:54:55.167Z,0.40
2022-12-19T14:56:29.077Z,0.40
2022-12-19T14:59:00.613Z,0.60
2022-12-19T15:01:30.167Z,0.70
2022-12-19T15:04:50.709Z,0.70
2022-12-19T15:07:08.493Z,0.70
2022-12-19T15:11:02.798Z,0.80
2022-12-19T15:14:51.165Z,0.80
2022-12-19T15:15:41.362Z,0.80
2022-12-19T15:18:19.640Z,0.80
2022-12-19T15:20:49.335Z,0.90
2022-12-19T15:23:21.954Z,0.90
2022-12-19T15:26:07.997Z,0.90
2022-12-19T15:28:44.164Z,0.80
2022-12-19T15:31:16.531Z,1.00
2022-12-19T15:34:14.321Z,0.90
2022-12-19T15:36:34.374Z,1.00
2022-12-19T15:39:03.852Z,0.90
2022-12-19T15:41:32.332Z,0.90
2022-12-19T15:44:04.061Z,1.00
2022-12-19T15:46:35.685Z,1.10
2022-12-19T15:49:06.749Z,1.10
2022-12-19T15:51:36.690Z,1.00
2022-12-19T15:56:55.111Z,1.10
2022-12-19T15:59:29.855Z,1.10
2022-12-19T16:02:04.376Z,1.10
2022-12-19T16:04:32.866Z,1.10
2022-12-19T16:07:02.615Z,1.00
2022-12-19T16:09:30.935Z,1.00
2022-12-19T16:11:59.079Z,1.00
2022-12-19T16:14:27.325Z,1.00
2022-12-19T16:16:55.867Z,1.00
2022-12-19T16:19:25.559Z,1.00
2022-12-19T16:21:54.341Z,1.00
2022-12-19T16:24:24.142Z,1.10
2022-12-19T16:26:54.070Z,1.10
2022-12-19T16:29:25.099Z,1.00
2022-12-19T16:31:53.269Z,1.10
2022-12-19T16:34:23.006Z,1.10
2022-12-19T16:36:51.554Z,1.10
2022-12-19T16:39:19.796Z,1.10
2022-12-19T16:41:49.602Z,1.10
2022-12-19T16:44:19.733Z,1.10
2022-12-19T16:46:51.114Z,1.10
2022-12-19T16:49:22.905Z,1.10
2022-12-19T16:51:51.303Z,1.10
2022-12-19T16:54:20.202Z,1.10
2022-12-19T16:56:50.604Z,1.20
2022-12-19T16:59:20.423Z,1.10
2022-12-19T17:01:48.937Z,1.10
2022-12-19T17:04:17.891Z,1.10
2022-12-19T17:06:46.104Z,1.10
2022-12-19T17:09:17.938Z,1.00
2022-12-19T17:11:48.258Z,1.10
2022-12-19T17:14:22.491Z,1.10
2022-12-19T17:16:53.584Z,1.10
2022-12-19T17:19:22.718Z,1.10
2022-12-19T17:21:51.215Z,1.10
2022-12-19T17:24:19.573Z,1.00
2022-12-19T17:26:49.404Z,1.00
2022-12-19T17:29:17.787Z,1.10
2022-12-19T17:31:47.382Z,1.10
2022-12-19T17:34:18.770Z,1.10
2022-12-19T17:36:47.247Z,1.00
2022-12-19T17:39:19.601Z,1.10
2022-12-19T17:41:47.855Z,1.10
2022-12-19T17:44:15.988Z,1.10
2022-12-19T17:46:44.565Z,1.00
2022-12-19T17:49:19.570Z,1.00
2022-12-19T17:51:49.937Z,1.00
2022-12-19T17:54:18.117Z,1.10
2022-12-19T17:56:46.484Z,1.10
2022-12-19T17:59:14.841Z,1.10
2022-12-19T18:01:43.831Z,1.10
2022-12-19T18:04:14.869Z,1.10
2022-12-19T18:06:44.838Z,1.20
2022-12-19T18:09:18.196Z,1.10
2022-12-19T18:11:46.569Z,1.20
2022-12-19T18:14:14.912Z,1.10
2022-12-19T18:16:43.250Z,1.10
2022-12-19T18:19:16.394Z,1.10
2022-12-19T18:21:46.045Z,1.20
2022-12-19T18:24:16.627Z,1.10
2022-12-19T18:26:47.716Z,1.10
2022-12-19T18:29:16.549Z,1.10
2022-12-19T18:31:50.391Z,1.10
2022-12-19T18:34:20.358Z,1.10
2022-12-19T18:36:50.075Z,1.20
2022-12-19T18:39:21.977Z,1.20
2022-12-19T18:41:50.622Z,1.20
2022-12-19T18:44:19.115Z,1.20
2022-12-19T18:46:47.347Z,1.20
2022-12-19T18:49:16.899Z,1.20
2022-12-19T18:51:45.820Z,1.20
2022-12-19T18:54:17.433Z,1.20
2022-12-19T18:56:46.480Z,1.20
2022-12-19T18:59:14.927Z,1.20
2022-12-19T19:01:44.003Z,1.20
2022-12-19T19:04:13.479Z,1.20
2022-12-19T19:06:48.525Z,1.20
2022-12-19T19:09:21.809Z,1.20
2022-12-19T19:11:49.942Z,1.10
2022-12-19T19:14:18.117Z,1.20
2022-12-19T19:16:46.638Z,1.20
2022-12-19T19:19:17.834Z,1.20
2022-12-19T19:21:46.051Z,1.20
2022-12-19T19:24:16.482Z,1.10
2022-12-19T19:26:46.222Z,1.20
2022-12-19T19:29:18.047Z,1.20
2022-12-19T19:31:49.344Z,1.20
2022-12-19T19:34:20.991Z,1.10
2022-12-19T19:36:53.734Z,1.10
2022-12-19T19:39:23.127Z,1.30
2022-12-19T19:41:53.705Z,1.20
2022-12-19T19:44:22.066Z,1.20
2022-12-19T19:46:53.079Z,1.20
2022-12-19T19:49:21.837Z,1.20
2022-12-19T19:51:50.186Z,1.20
2022-12-19T19:54:18.542Z,1.20
2022-12-19T19:56:46.755Z,1.20
2022-12-19T19:59:16.308Z,1.20
2022-12-19T20:01:44.719Z,1.20
2022-12-19T20:04:13.164Z,1.10
2022-12-19T20:06:41.391Z,1.20
2022-12-19T20:09:09.546Z,1.10
2022-12-19T20:11:37.904Z,1.10
2022-12-19T20:14:06.069Z,1.10
2022-12-19T20:16:36.271Z,1.20
2022-12-19T20:19:04.538Z,1.20
2022-12-19T20:21:33.574Z,1.20
2022-12-19T20:24:01.987Z,1.20
2022-12-19T20:26:30.151Z,1.20
2022-12-19T20:28:58.507Z,1.20
2022-12-19T20:31:26.778Z,1.20
2022-12-19T20:33:56.956Z,1.20
2022-12-19T20:36:25.230Z,1.20
2022-12-19T20:38:53.314Z,1.20
2022-12-19T20:41:22.352Z,1.20
2022-12-19T20:43:52.504Z,1.20
2022-12-19T20:46:21.119Z,1.10
2022-12-19T20:48:50.245Z,1.10
2022-12-19T20:51:20.804Z,1.20
2022-12-19T20:53:49.137Z,1.20
2022-12-19T20:56:17.930Z,1.20
2022-12-19T20:58:46.745Z,1.20
2022-12-19T21:01:16.696Z,1.20
2022-12-19T21:03:47.156Z,1.20
2022-12-19T21:06:17.681Z,1.10
2022-12-19T21:08:47.337Z,1.20
2022-12-19T21:11:16.667Z,1.20
2022-12-19T21:13:44.961Z,1.20
2022-12-19T21:16:14.689Z,1.10
2022-12-19T21:18:43.648Z,1.20
2022-12-19T21:21:13.854Z,1.20
2022-12-19T21:23:42.681Z,1.20
2022-12-19T21:26:12.364Z,1.20
2022-12-19T21:28:40.720Z,1.20
2022-12-19T21:31:16.298Z,1.20
2022-12-19T21:33:44.707Z,1.20
2022-12-19T21:36:14.027Z,1.20
2022-12-19T21:38:42.197Z,1.20
2022-12-19T21:41:12.944Z,1.20
2022-12-19T21:43:42.749Z,1.20
2022-12-19T21:46:12.564Z,1.20
2022-12-19T21:48:41.849Z,1.20
2022-12-19T21:51:10.978Z,1.20
2022-12-19T21:53:39.908Z,1.20
2022-12-19T21:56:09.554Z,1.20
2022-12-19T21:58:37.668Z,1.20
2022-12-19T22:01:08.706Z,1.20
2022-12-19T22:03:37.167Z,1.20
2022-12-19T22:06:05.970Z,1.20
2022-12-19T22:08:34.308Z,1.20
2022-12-19T22:11:03.251Z,1.20
2022-12-19T22:13:31.677Z,1.20
2022-12-19T22:16:03.555Z,1.20
2022-12-19T22:18:35.157Z,1.20
2022-12-19T22:21:03.689Z,1.20
2022-12-19T22:23:32.290Z,1.20
2022-12-19T22:26:04.420Z,1.20
2022-12-19T22:28:33.346Z,1.30
2022-12-19T22:31:01.536Z,1.30
2022-12-19T22:33:31.742Z,1.20
2022-12-19T22:36:05.572Z,1.20
2022-12-19T22:38:33.966Z,1.20
2022-12-19T22:41:04.182Z,1.20
2022-12-19T22:43:32.574Z,1.20
2022-12-19T22:46:00.983Z,1.20
2022-12-19T22:48:29.121Z,1.20
2022-12-19T22:50:58.256Z,1.20
2022-12-19T22:53:28.012Z,1.30
2022-12-19T22:55:56.175Z,1.30
2022-12-19T22:58:24.346Z,1.20
2022-12-19T23:00:52.604Z,1.30
2022-12-19T23:03:20.957Z,1.20
2022-12-19T23:05:52.019Z,1.30
2022-12-19T23:08:20.438Z,1.30
2022-12-19T23:10:52.204Z,1.30
2022-12-19T23:13:20.759Z,1.20
2022-12-19T23:15:48.888Z,1.30
2022-12-19T23:18:17.107Z,1.30
2022-12-19T23:20:45.410Z,1.30
2022-12-19T23:23:13.581Z,1.20
2022-12-19T23:25:42.646Z,1.30
2022-12-19T23:28:12.350Z,1.30
2022-12-19T23:30:40.479Z,1.30
2022-12-19T23:33:08.728Z,1.30
2022-12-19T23:35:36.975Z,1.30
2022-12-19T23:38:05.055Z,1.30
2022-12-19T23:40:33.240Z,1.40
2022-12-19T23:43:01.410Z,1.30
2022-12-19T23:45:31.065Z,1.40
2022-12-19T23:48:00.380Z,1.40
2022-12-19T23:50:28.693Z,1.40
2022-12-19T23:52:57.027Z,1.40
2022-12-19T23:55:26.070Z,1.40
2022-12-19T23:57:54.140Z,1.40
